createdAt,value
2018-12-16T00:00:04.944Z,15.80
2018-12-16T00:02:34.179Z,16.30
2018-12-16T00:05:03.783Z,18.23
2018-12-16T00:07:32.993Z,16.20
2018-12-16T00:10:02.832Z,15.43
2018-12-16T00:12:32.024Z,18.02
2018-12-16T00:15:01.169Z,15.75
2018-12-16T00:17:30.419Z,14.25
2018-12-16T00:19:59.526Z,15.68
2018-12-16T00:22:29.965Z,18.02
2018-12-16T00:24:59.960Z,17.80
2018-12-16T00:27:29.076Z,15.85
2018-12-16T00:29:58.900Z,13.18
2018-12-16T00:32:28.184Z,15.15
2018-12-16T00:34:57.349Z,14.47
2018-12-16T00:37:27.028Z,18.10
2018-12-16T00:39:56.155Z,15.85
2018-12-16T00:42:25.288Z,16.30
2018-12-16T00:44:55.048Z,13.50
2018-12-16T00:47:24.295Z,13.55
2018-12-16T00:49:54.260Z,15.43
2018-12-16T00:52:24.108Z,15.15
2018-12-16T00:54:53.337Z,15.88
2018-12-16T00:57:22.544Z,16.62
2018-12-16T00:59:51.821Z,17.77
2018-12-16T01:05:12.252Z,15.78
2018-12-16T01:07:41.548Z,15.35
2018-12-16T01:10:11.359Z,15.63
2018-12-16T01:12:40.732Z,18.42
2018-12-16T01:15:10.111Z,17.55
2018-12-16T01:17:40.448Z,15.98
2018-12-16T01:20:09.700Z,15.48
2018-12-16T01:22:43.433Z,14.68
2018-12-16T01:25:10.052Z,13.85
2018-12-16T01:27:39.197Z,14.95
2018-12-16T01:30:08.573Z,13.80
2018-12-16T01:32:38.376Z,16.17
2018-12-16T01:35:08.095Z,14.45
2018-12-16T01:37:38.017Z,15.50
2018-12-16T01:40:08.685Z,15.25
2018-12-16T01:42:37.931Z,15.28
2018-12-16T01:45:07.269Z,12.70
2018-12-16T01:47:36.864Z,15.10
2018-12-16T01:50:06.553Z,15.08
2018-12-16T01:52:35.744Z,15.48
2018-12-16T01:55:06.600Z,15.63
2018-12-16T01:57:35.795Z,14.55
2018-12-16T02:00:08.048Z,13.88
2018-12-16T02:02:37.209Z,15.03
2018-12-16T02:05:06.980Z,14.60
2018-12-16T02:07:36.240Z,16.20
2018-12-16T02:10:07.733Z,13.40
2018-12-16T02:12:36.880Z,13.45
2018-12-16T02:15:06.525Z,13.93
2018-12-16T02:17:35.672Z,15.85
2018-12-16T02:20:06.498Z,13.10
2018-12-16T02:22:35.698Z,15.43
2018-12-16T02:25:08.025Z,14.23
2018-12-16T02:27:37.137Z,12.98
2018-12-16T02:32:54.782Z,15.60
2018-12-16T02:35:24.073Z,12.33
2018-12-16T02:37:53.284Z,13.83
2018-12-16T02:40:22.485Z,13.38
2018-12-16T02:42:51.764Z,14.87
2018-12-16T02:45:21.044Z,13.38
2018-12-16T02:47:50.335Z,12.65
2018-12-16T02:50:19.576Z,13.45
2018-12-16T02:52:48.764Z,14.63
2018-12-16T02:55:18.045Z,13.90
2018-12-16T02:57:47.317Z,15.90
2018-12-16T03:00:16.420Z,10.98
2018-12-16T03:02:45.675Z,11.95
2018-12-16T03:05:14.948Z,11.33
2018-12-16T03:07:44.132Z,14.23
2018-12-16T03:10:13.308Z,13.18
2018-12-16T03:12:42.450Z,14.73
2018-12-16T03:15:11.664Z,12.80
2018-12-16T03:17:40.917Z,13.75
2018-12-16T03:20:10.175Z,13.90
2018-12-16T03:22:39.463Z,12.50
2018-12-16T03:25:08.741Z,13.85
2018-12-16T03:27:38.375Z,14.23
2018-12-16T03:30:10.023Z,12.45
2018-12-16T03:32:39.390Z,11.50
2018-12-16T03:35:08.720Z,13.95
2018-12-16T03:37:38.041Z,13.30
2018-12-16T03:40:07.486Z,12.05
2018-12-16T03:42:46.191Z,8.25
2018-12-16T03:45:15.537Z,12.63
2018-12-16T03:47:44.919Z,13.78
2018-12-16T03:50:14.196Z,10.95
2018-12-16T03:52:43.376Z,16.00
2018-12-16T03:55:12.582Z,13.43
2018-12-16T03:57:41.730Z,13.10
2018-12-16T04:00:11.101Z,12.78
2018-12-16T04:02:40.396Z,12.73
2018-12-16T04:05:09.684Z,12.00
2018-12-16T04:07:38.877Z,14.65
2018-12-16T04:10:08.189Z,12.40
2018-12-16T04:12:37.444Z,13.75
2018-12-16T04:15:09.187Z,13.58
2018-12-16T04:17:38.328Z,13.90
2018-12-16T04:20:07.569Z,14.55
2018-12-16T04:22:36.901Z,14.65
2018-12-16T04:25:06.359Z,12.77
2018-12-16T04:27:36.400Z,12.53
2018-12-16T04:30:06.848Z,13.75
2018-12-16T04:32:36.120Z,12.75
2018-12-16T04:35:06.381Z,14.10
2018-12-16T04:37:35.497Z,14.83
2018-12-16T04:40:05.148Z,13.62
2018-12-16T04:42:34.281Z,16.35
2018-12-16T04:45:03.504Z,14.18
2018-12-16T04:47:33.168Z,15.90
2018-12-16T04:50:02.386Z,16.50
2018-12-16T04:52:31.541Z,17.23
2018-12-16T04:55:01.222Z,17.00
2018-12-16T04:57:30.360Z,16.73
2018-12-16T04:59:59.502Z,15.23
2018-12-16T05:02:28.820Z,17.48
2018-12-16T05:04:57.935Z,16.23
2018-12-16T05:07:27.068Z,14.93
2018-12-16T05:12:49.740Z,19.73
2018-12-16T05:15:19.404Z,17.85
2018-12-16T05:17:48.559Z,17.57
2018-12-16T05:20:17.784Z,18.12
2018-12-16T05:22:47.540Z,16.97
2018-12-16T05:25:16.691Z,16.48
2018-12-16T05:27:45.858Z,18.10
2018-12-16T05:30:15.487Z,16.60
2018-12-16T05:32:44.630Z,18.30
2018-12-16T05:35:13.876Z,18.07
2018-12-16T05:37:43.052Z,20.10
2018-12-16T05:40:12.352Z,19.80
2018-12-16T05:42:41.593Z,15.83
2018-12-16T05:45:10.900Z,17.95
2018-12-16T05:47:40.055Z,18.77
2018-12-16T05:50:09.332Z,22.17
2018-12-16T05:52:38.479Z,20.55
2018-12-16T05:55:07.692Z,21.00
2018-12-16T05:57:36.841Z,22.65
2018-12-16T06:00:06.670Z,21.23
2018-12-16T06:02:35.838Z,18.42
2018-12-16T06:05:06.680Z,19.40
2018-12-16T06:07:36.808Z,18.37
2018-12-16T06:10:06.872Z,17.25
2018-12-16T06:12:36.206Z,19.45
2018-12-16T06:15:06.199Z,19.15
2018-12-16T06:17:35.413Z,20.35
2018-12-16T06:20:04.851Z,15.53
2018-12-16T06:22:34.016Z,20.10
2018-12-16T06:25:03.232Z,18.27
2018-12-16T06:27:32.452Z,19.05
2018-12-16T06:30:01.783Z,17.67
2018-12-16T06:32:31.004Z,21.23
2018-12-16T06:35:00.140Z,20.37
2018-12-16T06:37:29.360Z,24.27
2018-12-16T06:39:59.130Z,21.85
2018-12-16T06:42:28.359Z,20.57
2018-12-16T06:44:57.540Z,18.60
2018-12-16T06:47:26.716Z,23.10
2018-12-16T06:49:55.861Z,23.98
2018-12-16T06:52:25.752Z,20.08
2018-12-16T06:54:54.888Z,21.57
2018-12-16T06:57:24.692Z,23.52
2018-12-16T06:59:53.837Z,20.95
2018-12-16T07:02:22.985Z,20.40
2018-12-16T07:04:52.120Z,19.77
2018-12-16T07:07:21.743Z,21.82
2018-12-16T07:09:50.897Z,21.87
2018-12-16T07:12:20.054Z,20.32
2018-12-16T07:14:49.235Z,21.23
2018-12-16T07:17:18.395Z,19.50
2018-12-16T07:19:47.708Z,21.70
2018-12-16T07:22:16.966Z,23.02
2018-12-16T07:24:46.644Z,22.90
2018-12-16T07:27:15.856Z,22.80
2018-12-16T07:29:45.067Z,22.40
2018-12-16T07:32:15.271Z,22.73
2018-12-16T07:34:44.494Z,21.40
2018-12-16T07:37:18.975Z,19.45
2018-12-16T07:39:47.037Z,19.90
2018-12-16T07:42:16.260Z,18.82
2018-12-16T07:44:45.377Z,20.10
2018-12-16T07:47:15.197Z,19.40
2018-12-16T07:49:44.408Z,18.42
2018-12-16T07:52:13.635Z,18.20
2018-12-16T07:54:42.808Z,20.25
2018-12-16T07:57:11.952Z,19.55
2018-12-16T07:59:41.140Z,20.95
2018-12-16T08:02:10.369Z,19.67
2018-12-16T08:04:39.600Z,18.23
2018-12-16T08:07:08.737Z,20.08
2018-12-16T08:09:37.856Z,20.20
2018-12-16T08:12:07.068Z,20.50
2018-12-16T08:14:36.607Z,20.92
2018-12-16T08:17:05.940Z,21.43
2018-12-16T08:19:35.069Z,21.15
2018-12-16T08:22:04.221Z,20.12
2018-12-16T08:24:33.356Z,21.87
2018-12-16T08:27:02.575Z,24.45
2018-12-16T08:29:31.880Z,23.12
2018-12-16T08:32:01.343Z,22.90
2018-12-16T08:34:30.536Z,18.90
2018-12-16T08:36:59.713Z,20.05
2018-12-16T08:39:28.847Z,21.68
2018-12-16T08:41:58.075Z,22.05
2018-12-16T08:44:27.694Z,22.63
2018-12-16T08:46:57.730Z,33.05
2018-12-16T08:49:27.525Z,22.27
2018-12-16T08:51:56.680Z,20.13
2018-12-16T08:54:30.101Z,22.60
2018-12-16T08:56:57.281Z,21.40
2018-12-16T08:59:26.470Z,20.23
2018-12-16T09:01:55.590Z,18.87
2018-12-16T09:04:25.726Z,18.17
2018-12-16T09:06:55.028Z,19.83
2018-12-16T09:09:24.900Z,18.13
2018-12-16T09:11:54.121Z,22.37
2018-12-16T09:14:23.426Z,19.60
2018-12-16T09:16:53.698Z,20.57
2018-12-16T09:19:23.159Z,20.20
2018-12-16T09:21:52.299Z,17.50
2018-12-16T09:24:21.502Z,21.60
2018-12-16T09:26:51.120Z,20.90
2018-12-16T09:29:20.480Z,20.43
2018-12-16T09:31:49.636Z,20.37
2018-12-16T09:34:18.760Z,20.27
2018-12-16T09:36:47.866Z,19.33
2018-12-16T09:39:17.076Z,22.03
2018-12-16T09:41:46.652Z,19.73
2018-12-16T09:44:16.056Z,21.47
2018-12-16T09:46:45.220Z,22.80
2018-12-16T09:49:14.776Z,22.23
2018-12-16T09:51:44.202Z,19.50
2018-12-16T09:54:13.392Z,18.03
2018-12-16T09:56:43.012Z,19.67
2018-12-16T09:59:12.379Z,19.93
2018-12-16T10:01:41.659Z,21.30
2018-12-16T10:04:10.963Z,21.43
2018-12-16T10:06:40.219Z,19.00
2018-12-16T10:09:10.147Z,21.50
2018-12-16T10:11:39.820Z,19.47
2018-12-16T10:14:09.040Z,17.60
2018-12-16T10:16:41.234Z,22.80
2018-12-16T10:19:10.420Z,19.60
2018-12-16T10:21:39.837Z,19.00
2018-12-16T10:24:09.076Z,20.60
2018-12-16T10:26:38.369Z,19.97
2018-12-16T10:29:07.723Z,18.90
2018-12-16T10:31:36.932Z,19.57
2018-12-16T10:34:06.492Z,19.20
2018-12-16T10:36:41.618Z,20.93
2018-12-16T10:39:10.745Z,20.10
2018-12-16T10:41:39.868Z,20.40
2018-12-16T10:44:09.073Z,16.90
2018-12-16T10:46:38.588Z,19.40
2018-12-16T10:49:08.440Z,20.30
2018-12-16T10:51:37.669Z,20.27
2018-12-16T10:54:06.869Z,18.17
2018-12-16T10:56:36.269Z,20.93
2018-12-16T10:59:05.885Z,20.93
2018-12-16T11:01:35.149Z,18.10
2018-12-16T11:04:04.475Z,18.80
2018-12-16T11:06:34.237Z,20.57
2018-12-16T11:09:03.605Z,22.10
2018-12-16T11:11:40.056Z,21.27
2018-12-16T11:17:09.956Z,21.57
2018-12-16T11:19:39.172Z,19.83
2018-12-16T11:22:08.366Z,19.40
2018-12-16T11:24:37.487Z,20.50
2018-12-16T11:27:06.605Z,21.30
2018-12-16T11:29:36.561Z,18.60
2018-12-16T11:32:05.900Z,20.70
2018-12-16T11:34:35.121Z,20.43
2018-12-16T11:37:04.701Z,18.57
2018-12-16T11:39:33.979Z,17.80
2018-12-16T11:42:04.316Z,21.97
2018-12-16T11:44:33.416Z,19.33
2018-12-16T11:47:02.688Z,20.80
2018-12-16T11:49:31.926Z,21.67
2018-12-16T11:52:02.839Z,23.53
2018-12-16T11:54:32.088Z,21.03
2018-12-16T11:57:01.640Z,21.07
2018-12-16T11:59:30.816Z,20.70
2018-12-16T12:02:00.582Z,18.50
2018-12-16T12:04:30.658Z,18.20
2018-12-16T12:07:01.449Z,17.60
2018-12-16T12:09:30.783Z,19.90
2018-12-16T12:12:00.038Z,17.63
2018-12-16T12:14:29.521Z,17.17
2018-12-16T12:16:59.385Z,17.57
2018-12-16T12:19:39.570Z,16.77
2018-12-16T12:22:09.396Z,16.70
2018-12-16T12:24:38.893Z,15.60
2018-12-16T12:27:08.264Z,19.00
2018-12-16T12:29:37.385Z,18.10
2018-12-16T12:32:06.585Z,19.53
2018-12-16T12:34:35.731Z,19.60
2018-12-16T12:37:05.295Z,17.03
2018-12-16T12:39:34.643Z,15.80
2018-12-16T12:42:04.311Z,18.60
2018-12-16T12:44:33.438Z,18.07
2018-12-16T12:47:02.845Z,16.77
2018-12-16T12:49:32.417Z,16.17
2018-12-16T12:52:01.592Z,18.07
2018-12-16T12:54:31.144Z,19.23
2018-12-16T12:57:00.275Z,20.23
2018-12-16T12:59:29.468Z,20.47
2018-12-16T13:01:58.920Z,20.90
2018-12-16T13:04:28.709Z,21.20
2018-12-16T13:06:57.928Z,19.60
2018-12-16T13:09:27.160Z,19.20
2018-12-16T13:11:57.126Z,17.50
2018-12-16T13:14:26.745Z,16.10
2018-12-16T13:16:56.090Z,16.93
2018-12-16T13:19:25.923Z,18.17
2018-12-16T13:21:55.163Z,17.57
2018-12-16T13:24:24.427Z,17.83
2018-12-16T13:26:55.621Z,17.17
2018-12-16T13:29:24.849Z,18.10
2018-12-16T13:31:54.788Z,16.70
2018-12-16T13:34:24.569Z,18.27
2018-12-16T13:36:54.545Z,17.93
2018-12-16T13:39:23.696Z,21.00
2018-12-16T13:41:53.063Z,20.27
2018-12-16T13:44:22.224Z,18.20
2018-12-16T13:46:51.990Z,17.07
2018-12-16T13:49:21.199Z,18.07
2018-12-16T13:51:50.548Z,18.43
2018-12-16T13:54:20.204Z,17.63
2018-12-16T13:56:49.341Z,18.40
2018-12-16T13:59:18.464Z,18.80
2018-12-16T14:01:47.576Z,17.90
2018-12-16T14:04:16.696Z,18.93
2018-12-16T14:06:46.315Z,20.13
2018-12-16T14:09:15.615Z,18.50
2018-12-16T14:11:45.052Z,15.80
2018-12-16T14:14:14.215Z,16.10
2018-12-16T14:16:43.680Z,16.43
2018-12-16T14:19:13.630Z,17.83
2018-12-16T14:21:42.801Z,16.40
2018-12-16T14:24:18.560Z,19.20
2018-12-16T14:26:48.336Z,17.63
2018-12-16T14:29:17.592Z,17.13
2018-12-16T14:31:46.752Z,15.73
2018-12-16T14:34:16.448Z,16.40
2018-12-16T14:36:45.726Z,16.57
2018-12-16T14:39:15.511Z,19.03
2018-12-16T14:41:44.689Z,18.83
2018-12-16T14:44:14.187Z,16.77
2018-12-16T14:46:43.511Z,16.83
2018-12-16T14:49:12.771Z,18.03
2018-12-16T14:51:42.013Z,17.40
2018-12-16T14:54:11.893Z,16.70
2018-12-16T14:56:42.588Z,15.90
2018-12-16T14:59:11.706Z,15.80
2018-12-16T15:01:41.543Z,17.67
2018-12-16T15:04:10.800Z,18.00
2018-12-16T15:06:40.369Z,16.27
2018-12-16T15:09:10.437Z,16.60
2018-12-16T15:11:39.713Z,18.20
2018-12-16T15:14:10.493Z,17.30
2018-12-16T15:16:41.078Z,15.87
2018-12-16T15:19:10.245Z,18.30
2018-12-16T15:21:40.161Z,19.50
2018-12-16T15:24:10.272Z,23.17
2018-12-16T15:26:39.696Z,20.20
2018-12-16T15:29:08.833Z,21.17
2018-12-16T15:31:38.084Z,23.63
2018-12-16T15:34:08.032Z,20.37
2018-12-16T15:36:37.297Z,22.07
2018-12-16T15:39:08.216Z,21.87
2018-12-16T15:41:37.359Z,21.70
2018-12-16T15:44:06.671Z,23.17
2018-12-16T15:46:35.969Z,22.77
2018-12-16T15:49:05.404Z,23.10
2018-12-16T15:51:34.707Z,22.17
2018-12-16T15:54:03.913Z,24.40
2018-12-16T15:56:33.144Z,24.90
2018-12-16T15:59:02.255Z,23.53
2018-12-16T16:01:31.481Z,22.70
2018-12-16T16:04:01.288Z,22.40
2018-12-16T16:06:30.665Z,21.67
2018-12-16T16:09:00.253Z,21.67
2018-12-16T16:11:30.256Z,20.70
2018-12-16T16:13:59.372Z,18.70
2018-12-16T16:16:28.569Z,23.20
2018-12-16T16:18:57.782Z,27.67
2018-12-16T16:21:26.911Z,27.90
2018-12-16T16:23:56.271Z,22.03
2018-12-16T16:26:25.474Z,23.30
2018-12-16T16:28:54.612Z,25.77
2018-12-16T16:31:24.592Z,23.00
2018-12-16T16:33:54.389Z,26.87
2018-12-16T16:36:23.516Z,27.17
2018-12-16T16:38:52.818Z,26.47
2018-12-16T16:41:22.064Z,24.50
2018-12-16T16:43:51.741Z,30.20
2018-12-16T16:46:20.865Z,32.43
2018-12-16T16:48:50.128Z,41.40
2018-12-16T16:51:19.356Z,40.87
2018-12-16T16:53:48.671Z,35.40
2018-12-16T16:56:22.986Z,35.70
2018-12-16T16:58:49.191Z,33.63
2018-12-16T17:01:19.462Z,30.20
2018-12-16T17:03:49.410Z,30.33
2018-12-16T17:06:19.088Z,27.50
2018-12-16T17:08:48.427Z,26.00
2018-12-16T17:11:18.120Z,25.77
2018-12-16T17:13:48.027Z,24.67
2018-12-16T17:16:17.382Z,22.40
2018-12-16T17:18:48.729Z,27.23
2018-12-16T17:21:18.808Z,26.47
2018-12-16T17:23:47.988Z,26.40
2018-12-16T17:26:17.340Z,29.13
2018-12-16T17:28:47.256Z,29.90
2018-12-16T17:31:16.664Z,29.17
2018-12-16T17:33:45.840Z,28.17
2018-12-16T17:36:15.076Z,26.37
2018-12-16T17:38:44.186Z,25.60
2018-12-16T17:41:13.934Z,29.47
2018-12-16T17:43:47.911Z,25.33
2018-12-16T17:46:17.215Z,26.77
2018-12-16T17:48:47.083Z,24.97
2018-12-16T17:51:17.080Z,29.20
2018-12-16T17:53:47.099Z,26.67
2018-12-16T17:56:16.648Z,26.43
2018-12-16T17:58:45.822Z,28.47
2018-12-16T18:01:14.972Z,30.90
2018-12-16T18:03:44.151Z,27.80
2018-12-16T18:06:13.240Z,29.03
2018-12-16T18:08:42.468Z,29.87
2018-12-16T18:11:12.254Z,33.63
2018-12-16T18:13:41.479Z,32.83
2018-12-16T18:16:10.689Z,30.43
2018-12-16T18:18:40.272Z,31.20
2018-12-16T18:21:09.432Z,34.87
2018-12-16T18:23:38.596Z,30.50
2018-12-16T18:26:07.904Z,30.93
2018-12-16T18:28:42.960Z,35.53
2018-12-16T18:31:12.116Z,34.33
2018-12-16T18:33:41.249Z,34.17
2018-12-16T18:36:10.658Z,32.37
2018-12-16T18:38:39.896Z,30.40
2018-12-16T18:41:09.736Z,35.10
2018-12-16T18:43:39.631Z,29.80
2018-12-16T18:46:09.474Z,26.63
2018-12-16T18:48:38.693Z,29.00
2018-12-16T18:51:08.648Z,24.30
2018-12-16T18:53:37.772Z,23.80
2018-12-16T18:56:08.164Z,21.87
2018-12-16T18:58:37.464Z,24.43
2018-12-16T19:01:07.513Z,23.80
2018-12-16T19:03:37.309Z,28.63
2018-12-16T19:06:07.672Z,27.57
2018-12-16T19:08:37.140Z,28.63
2018-12-16T19:11:07.104Z,26.97
2018-12-16T19:13:36.238Z,26.47
2018-12-16T19:16:05.560Z,26.03
2018-12-16T19:18:35.761Z,25.90
2018-12-16T19:21:05.089Z,24.47
2018-12-16T19:23:35.900Z,28.20
2018-12-16T19:26:06.088Z,24.67
2018-12-16T19:28:35.321Z,24.97
2018-12-16T19:31:04.681Z,22.97
2018-12-16T19:33:33.991Z,24.73
2018-12-16T19:36:03.112Z,25.93
2018-12-16T19:38:32.731Z,25.60
2018-12-16T19:41:02.128Z,28.17
2018-12-16T19:43:31.385Z,26.03
2018-12-16T19:46:00.524Z,24.10
2018-12-16T19:48:29.920Z,23.63
2018-12-16T19:50:59.433Z,24.70
2018-12-16T19:53:28.592Z,23.97
2018-12-16T19:55:57.712Z,25.77
2018-12-16T19:58:27.303Z,22.87
2018-12-16T20:00:56.425Z,22.47
2018-12-16T20:03:25.651Z,25.83
2018-12-16T20:06:00.000Z,23.77
2018-12-16T20:08:29.133Z,22.37
2018-12-16T20:10:58.624Z,21.03
2018-12-16T20:13:28.640Z,21.83
2018-12-16T20:16:01.507Z,23.17
2018-12-16T20:18:29.556Z,22.33
2018-12-16T20:20:58.766Z,20.83
2018-12-16T20:23:28.012Z,22.07
2018-12-16T20:25:57.227Z,22.57
2018-12-16T20:28:26.344Z,22.90
2018-12-16T20:30:55.509Z,22.60
2018-12-16T20:33:24.624Z,19.83
2018-12-16T20:35:53.795Z,21.33
2018-12-16T20:38:25.056Z,20.63
2018-12-16T20:40:55.016Z,20.70
2018-12-16T20:43:24.342Z,22.83
2018-12-16T20:45:54.011Z,22.10
2018-12-16T20:48:23.128Z,22.17
2018-12-16T20:50:52.326Z,23.60
2018-12-16T20:53:21.632Z,24.27
2018-12-16T20:55:51.529Z,24.30
2018-12-16T20:58:20.768Z,25.10
2018-12-16T21:00:49.964Z,23.60
2018-12-16T21:03:19.487Z,24.93
2018-12-16T21:05:48.588Z,28.20
2018-12-16T21:08:17.717Z,31.17
2018-12-16T21:10:46.928Z,31.37
2018-12-16T21:13:21.444Z,29.30
2018-12-16T21:15:56.476Z,27.23
2018-12-16T21:18:29.173Z,29.93
2018-12-16T21:20:58.317Z,35.80
2018-12-16T21:23:28.292Z,29.60
2018-12-16T21:25:57.426Z,30.03
2018-12-16T21:28:26.972Z,30.37
2018-12-16T21:30:56.097Z,31.20
2018-12-16T21:33:25.264Z,30.77
2018-12-16T21:35:54.469Z,28.50
2018-12-16T21:38:23.619Z,28.37
2018-12-16T21:40:52.828Z,31.40
2018-12-16T21:43:23.308Z,31.80
2018-12-16T21:45:52.514Z,26.90
2018-12-16T21:48:21.728Z,27.63
2018-12-16T21:50:51.460Z,30.90
2018-12-16T21:53:20.620Z,28.37
2018-12-16T21:55:50.558Z,27.60
2018-12-16T21:58:19.751Z,29.63
2018-12-16T22:00:49.571Z,28.00
2018-12-16T22:03:19.644Z,26.50
2018-12-16T22:05:50.122Z,29.33
2018-12-16T22:08:19.765Z,30.33
2018-12-16T22:10:48.999Z,29.50
2018-12-16T22:13:18.127Z,30.23
2018-12-16T22:15:47.495Z,28.10
2018-12-16T22:18:16.623Z,29.10
2018-12-16T22:20:46.330Z,26.77
2018-12-16T22:23:15.491Z,28.40
2018-12-16T22:25:44.650Z,26.17
2018-12-16T22:28:13.813Z,24.57
2018-12-16T22:33:20.905Z,27.97
2018-12-16T22:35:50.592Z,25.97
2018-12-16T22:38:19.809Z,25.80
2018-12-16T22:40:49.565Z,24.73
2018-12-16T22:43:18.765Z,23.30
2018-12-16T22:45:47.881Z,24.40
2018-12-16T22:48:17.152Z,25.40
2018-12-16T22:50:46.380Z,25.60
2018-12-16T22:53:15.761Z,23.47
2018-12-16T22:55:44.900Z,25.57
2018-12-16T22:58:14.102Z,25.10
2018-12-16T23:00:50.016Z,24.10
2018-12-16T23:03:19.590Z,22.87
2018-12-16T23:05:48.751Z,26.23
2018-12-16T23:08:18.113Z,21.57
2018-12-16T23:10:47.832Z,26.77
2018-12-16T23:13:17.148Z,22.40
2018-12-16T23:15:46.356Z,22.20
2018-12-16T23:18:15.592Z,24.93
2018-12-16T23:20:44.973Z,21.27
2018-12-16T23:23:14.176Z,22.03
2018-12-16T23:25:43.308Z,21.03
2018-12-16T23:28:13.293Z,22.70
2018-12-16T23:30:42.968Z,20.50
2018-12-16T23:33:12.269Z,21.73
2018-12-16T23:35:41.417Z,26.13
2018-12-16T23:38:11.236Z,24.80
2018-12-16T23:40:41.140Z,21.50
2018-12-16T23:43:10.270Z,33.80
2018-12-16T23:45:39.941Z,27.17
2018-12-16T23:48:09.265Z,24.80
2018-12-16T23:50:38.896Z,23.80
2018-12-16T23:53:08.112Z,23.53
2018-12-16T23:55:37.245Z,23.30
2018-12-16T23:58:06.791Z,25.27
